sensor_id;sensor_type;location;lat;lon;timestamp;pressure;altitude;pressure_sealevel;temperature;humidity
43312;BME280;30041;48.300;16.352;2022-10-16T00:01:18;99980.03;;;24.29;50.03
43312;BME280;30041;48.300;16.352;2022-10-16T00:03:44;99980.84;;;24.30;49.96
43312;BME280;30041;48.300;16.352;2022-10-16T00:06:11;99980.84;;;24.30;50.00
43312;BME280;30041;48.300;16.352;2022-10-16T00:08:37;99974.88;;;24.28;49.73
43312;BME280;30041;48.300;16.352;2022-10-16T00:11:16;99978.38;;;24.28;49.84
43312;BME280;30041;48.300;16.352;2022-10-16T00:13:43;99987.59;;;24.27;49.57
43312;BME280;30041;48.300;16.352;2022-10-16T00:16:10;99989.81;;;24.30;49.47
43312;BME280;30041;48.300;16.352;2022-10-16T00:18:36;99986.28;;;24.30;49.68
43312;BME280;30041;48.300;16.352;2022-10-16T00:21:04;99983.28;;;24.31;49.81
43312;BME280;30041;48.300;16.352;2022-10-16T00:23:31;99984.63;;;24.29;49.57
43312;BME280;30041;48.300;16.352;2022-10-16T00:26:02;99991.19;;;24.33;49.75
43312;BME280;30041;48.300;16.352;2022-10-16T00:28:28;99983.06;;;24.33;49.81
43312;BME280;30041;48.300;16.352;2022-10-16T00:30:54;99990.38;;;24.32;49.53
43312;BME280;30041;48.300;16.352;2022-10-16T00:33:20;99987.16;;;24.35;49.35
43312;BME280;30041;48.300;16.352;2022-10-16T00:35:45;99983.63;;;24.35;49.30
43312;BME280;30041;48.300;16.352;2022-10-16T00:38:11;99985.78;;;24.33;49.53
43312;BME280;30041;48.300;16.352;2022-10-16T00:40:37;99992.84;;;24.34;49.49
43312;BME280;30041;48.300;16.352;2022-10-16T00:43:14;99994.47;;;24.35;49.53
43312;BME280;30041;48.300;16.352;2022-10-16T00:45:57;99996.59;;;24.33;49.26
43312;BME280;30041;48.300;16.352;2022-10-16T00:48:23;99994.72;;;24.33;49.43
43312;BME280;30041;48.300;16.352;2022-10-16T00:50:48;100000.69;;;24.35;49.50
43312;BME280;30041;48.300;16.352;2022-10-16T00:53:14;100012.84;;;24.33;49.57
43312;BME280;30041;48.300;16.352;2022-10-16T00:55:41;100018.28;;;24.33;49.36
43312;BME280;30041;48.300;16.352;2022-10-16T00:58:07;100020.75;;;24.34;49.30
43312;BME280;30041;48.300;16.352;2022-10-16T01:00:32;100008.25;;;24.33;49.49
43312;BME280;30041;48.300;16.352;2022-10-16T01:03:00;100003.69;;;24.34;49.62
43312;BME280;30041;48.300;16.352;2022-10-16T01:05:38;99998.50;;;24.32;49.50
43312;BME280;30041;48.300;16.352;2022-10-16T01:08:13;100005.81;;;24.32;49.40
43312;BME280;30041;48.300;16.352;2022-10-16T01:10:51;100000.97;;;24.34;49.62
43312;BME280;30041;48.300;16.352;2022-10-16T01:13:27;100000.41;;;24.32;49.27
43312;BME280;30041;48.300;16.352;2022-10-16T01:16:17;100002.03;;;24.33;49.38
43312;BME280;30041;48.300;16.352;2022-10-16T01:18:50;100004.50;;;24.34;49.65
43312;BME280;30041;48.300;16.352;2022-10-16T01:21:32;100007.44;;;24.33;49.52
43312;BME280;30041;48.300;16.352;2022-10-16T01:29:52;100003.91;;;24.32;49.52
43312;BME280;30041;48.300;16.352;2022-10-16T01:32:28;100006.13;;;24.35;49.15
43312;BME280;30041;48.300;16.352;2022-10-16T01:35:18;100007.19;;;24.34;49.43
43312;BME280;30041;48.300;16.352;2022-10-16T01:37:50;100005.88;;;24.37;49.18
43312;BME280;30041;48.300;16.352;2022-10-16T01:40:19;100004.25;;;24.36;49.10
43312;BME280;30041;48.300;16.352;2022-10-16T01:43:02;99994.22;;;24.36;49.16
43312;BME280;30041;48.300;16.352;2022-10-16T01:45:29;99985.28;;;24.36;49.23
43312;BME280;30041;48.300;16.352;2022-10-16T01:47:58;99991.25;;;24.38;49.15
43312;BME280;30041;48.300;16.352;2022-10-16T01:50:26;99993.97;;;24.38;49.00
43312;BME280;30041;48.300;16.352;2022-10-16T01:52:54;99999.13;;;24.39;49.02
43312;BME280;30041;48.300;16.352;2022-10-16T01:55:32;99999.38;;;24.38;49.10
43312;BME280;30041;48.300;16.352;2022-10-16T01:58:01;100005.38;;;24.40;48.95
43312;BME280;30041;48.300;16.352;2022-10-16T02:00:39;100007.50;;;24.38;48.97
43312;BME280;30041;48.300;16.352;2022-10-16T02:03:11;100003.75;;;24.39;49.29
43312;BME280;30041;48.300;16.352;2022-10-16T02:05:42;100003.75;;;24.39;49.17
43312;BME280;30041;48.300;16.352;2022-10-16T02:08:10;100000.53;;;24.42;49.13
43312;BME280;30041;48.300;16.352;2022-10-16T02:10:36;100002.44;;;24.41;48.99
43312;BME280;30041;48.300;16.352;2022-10-16T02:13:06;99992.34;;;24.37;49.11
43312;BME280;30041;48.300;16.352;2022-10-16T02:15:33;100001.03;;;24.39;49.34
43312;BME280;30041;48.300;16.352;2022-10-16T02:17:58;100004.06;;;24.42;49.20
43312;BME280;30041;48.300;16.352;2022-10-16T02:20:27;100003.50;;;24.40;49.09
43312;BME280;30041;48.300;16.352;2022-10-16T02:22:56;99999.13;;;24.39;48.91
43312;BME280;30041;48.300;16.352;2022-10-16T02:25:30;100014.59;;;24.39;49.34
43312;BME280;30041;48.300;16.352;2022-10-16T02:28:11;100012.44;;;24.41;49.04
43312;BME280;30041;48.300;16.352;2022-10-16T02:30:40;100017.06;;;24.40;49.01
43312;BME280;30041;48.300;16.352;2022-10-16T02:33:10;100015.16;;;24.41;49.18
43312;BME280;30041;48.300;16.352;2022-10-16T02:35:37;100021.38;;;24.41;48.88
43312;BME280;30041;48.300;16.352;2022-10-16T02:38:04;100011.38;;;24.42;49.22
43312;BME280;30041;48.300;16.352;2022-10-16T02:40:31;100023.00;;;24.42;48.88
43312;BME280;30041;48.300;16.352;2022-10-16T02:42:57;100021.38;;;24.41;49.18
43312;BME280;30041;48.300;16.352;2022-10-16T02:45:24;100023.84;;;24.43;48.83
43312;BME280;30041;48.300;16.352;2022-10-16T02:47:50;100021.97;;;24.43;48.85
43312;BME280;30041;48.300;16.352;2022-10-16T02:50:16;100026.31;;;24.44;49.07
43312;BME280;30041;48.300;16.352;2022-10-16T02:52:51;100024.91;;;24.42;48.90
43312;BME280;30041;48.300;16.352;2022-10-16T02:55:16;100016.31;;;24.45;48.86
43312;BME280;30041;48.300;16.352;2022-10-16T02:57:45;100023.00;;;24.42;49.00
43312;BME280;30041;48.300;16.352;2022-10-16T03:00:14;100025.00;;;24.47;49.11
43312;BME280;30041;48.300;16.352;2022-10-16T03:02:40;100028.44;;;24.42;48.98
43312;BME280;30041;48.300;16.352;2022-10-16T03:05:06;100029.84;;;24.45;48.91
43312;BME280;30041;48.300;16.352;2022-10-16T03:07:32;100030.44;;;24.47;48.81
43312;BME280;30041;48.300;16.352;2022-10-16T03:09:57;100026.66;;;24.48;48.76
43312;BME280;30041;48.300;16.352;2022-10-16T03:12:23;100026.66;;;24.48;48.79
43312;BME280;30041;48.300;16.352;2022-10-16T03:14:48;100030.44;;;24.47;48.94
43312;BME280;30041;48.300;16.352;2022-10-16T03:17:14;100030.19;;;24.49;48.80
43312;BME280;30041;48.300;16.352;2022-10-16T03:19:39;100036.69;;;24.48;48.94
43312;BME280;30041;48.300;16.352;2022-10-16T03:22:05;100032.91;;;24.49;48.74
43312;BME280;30041;48.300;16.352;2022-10-16T03:24:30;100029.59;;;24.47;49.01
43312;BME280;30041;48.300;16.352;2022-10-16T03:26:56;100033.72;;;24.49;48.79
43312;BME280;30041;48.300;16.352;2022-10-16T03:29:25;100046.22;;;24.50;48.95
43312;BME280;30041;48.300;16.352;2022-10-16T03:31:51;100044.56;;;24.49;48.89
43312;BME280;30041;48.300;16.352;2022-10-16T03:34:16;100047.03;;;24.51;48.74
43312;BME280;30041;48.300;16.352;2022-10-16T03:36:42;100046.22;;;24.50;48.73
43312;BME280;30041;48.300;16.352;2022-10-16T03:39:10;100045.13;;;24.51;48.67
43312;BME280;30041;48.300;16.352;2022-10-16T03:41:36;100050.31;;;24.53;48.98
43312;BME280;30041;48.300;16.352;2022-10-16T03:44:01;100051.69;;;24.55;48.76
43312;BME280;30041;48.300;16.352;2022-10-16T03:46:27;100053.81;;;24.53;48.58
43312;BME280;30041;48.300;16.352;2022-10-16T03:48:52;100059.50;;;24.52;48.57
43312;BME280;30041;48.300;16.352;2022-10-16T03:51:18;100057.38;;;24.54;48.59
43312;BME280;30041;48.300;16.352;2022-10-16T03:53:43;100069.03;;;24.54;48.73
43312;BME280;30041;48.300;16.352;2022-10-16T03:56:09;100069.28;;;24.53;48.88
43312;BME280;30041;48.300;16.352;2022-10-16T03:58:34;100068.47;;;24.52;48.73
43312;BME280;30041;48.300;16.352;2022-10-16T04:01:00;100070.94;;;24.54;48.78
43312;BME280;30041;48.300;16.352;2022-10-16T04:03:26;100062.81;;;24.54;48.84
43312;BME280;30041;48.300;16.352;2022-10-16T04:05:51;100070.09;;;24.53;48.50
43312;BME280;30041;48.300;16.352;2022-10-16T04:08:17;100070.09;;;24.53;48.73
43312;BME280;30041;48.300;16.352;2022-10-16T04:10:43;100062.22;;;24.52;48.68
43312;BME280;30041;48.300;16.352;2022-10-16T04:13:08;100064.94;;;24.52;48.58
43312;BME280;30041;48.300;16.352;2022-10-16T04:15:34;100076.34;;;24.54;48.98
43312;BME280;30041;48.300;16.352;2022-10-16T04:17:59;100083.63;;;24.53;48.64
43312;BME280;30041;48.300;16.352;2022-10-16T04:20:25;100080.94;;;24.53;48.59
43312;BME280;30041;48.300;16.352;2022-10-16T04:22:51;100084.97;;;24.51;48.88
43312;BME280;30041;48.300;16.352;2022-10-16T04:25:16;100070.84;;;24.49;48.95
43312;BME280;30041;48.300;16.352;2022-10-16T04:27:42;100066.22;;;24.49;48.66
43312;BME280;30041;48.300;16.352;2022-10-16T04:30:08;100069.03;;;24.54;48.50
43312;BME280;30041;48.300;16.352;2022-10-16T04:32:33;100074.13;;;24.51;48.63
43312;BME280;30041;48.300;16.352;2022-10-16T04:34:59;100077.63;;;24.51;48.92
43312;BME280;30041;48.300;16.352;2022-10-16T04:37:25;100086.03;;;24.50;48.90
43312;BME280;30041;48.300;16.352;2022-10-16T04:39:51;100087.44;;;24.52;48.88
43312;BME280;30041;48.300;16.352;2022-10-16T04:42:17;100085.78;;;24.51;48.77
43312;BME280;30041;48.300;16.352;2022-10-16T04:44:42;100079.78;;;24.49;48.48
43312;BME280;30041;48.300;16.352;2022-10-16T04:47:08;100084.13;;;24.50;48.53
43312;BME280;30041;48.300;16.352;2022-10-16T04:49:33;100088.47;;;24.51;48.75
43312;BME280;30041;48.300;16.352;2022-10-16T04:51:59;100092.28;;;24.50;48.53
43312;BME280;30041;48.300;16.352;2022-10-16T04:54:24;100093.09;;;24.51;48.78
43312;BME280;30041;48.300;16.352;2022-10-16T04:56:50;100090.94;;;24.53;48.60
43312;BME280;30041;48.300;16.352;2022-10-16T04:59:17;100100.97;;;24.52;48.75
43312;BME280;30041;48.300;16.352;2022-10-16T05:01:43;100094.75;;;24.52;48.77
43312;BME280;30041;48.300;16.352;2022-10-16T05:04:09;100102.03;;;24.51;48.68
43312;BME280;30041;48.300;16.352;2022-10-16T05:06:35;100109.56;;;24.49;48.78
43312;BME280;30041;48.300;16.352;2022-10-16T05:09:01;100101.28;;;24.56;48.73
43312;BME280;30041;48.300;16.352;2022-10-16T05:11:27;100102.38;;;24.72;48.49
43312;BME280;30041;48.300;16.352;2022-10-16T05:13:55;100110.81;;;24.75;48.11
43312;BME280;30041;48.300;16.352;2022-10-16T05:16:21;100111.78;;;24.69;48.55
43312;BME280;30041;48.300;16.352;2022-10-16T05:18:46;100115.16;;;24.59;48.65
43312;BME280;30041;48.300;16.352;2022-10-16T05:21:12;100111.88;;;24.57;48.74
43312;BME280;30041;48.300;16.352;2022-10-16T05:23:38;100125.66;;;24.56;48.69
43312;BME280;30041;48.300;16.352;2022-10-16T05:26:04;100119.44;;;24.55;48.71
43312;BME280;30041;48.300;16.352;2022-10-16T05:28:30;100125.66;;;24.56;48.75
43312;BME280;30041;48.300;16.352;2022-10-16T05:30:56;100117.53;;;24.56;48.62
43312;BME280;30041;48.300;16.352;2022-10-16T05:33:24;100110.72;;;24.53;48.64
43312;BME280;30041;48.300;16.352;2022-10-16T05:35:50;100119.94;;;24.52;48.81
43312;BME280;30041;48.300;16.352;2022-10-16T05:38:16;100111.31;;;24.55;48.64
43312;BME280;30041;48.300;16.352;2022-10-16T05:40:42;100119.72;;;24.54;48.59
43312;BME280;30041;48.300;16.352;2022-10-16T05:43:08;100119.44;;;24.55;48.75
43312;BME280;30041;48.300;16.352;2022-10-16T05:45:33;100131.09;;;24.56;48.59
43312;BME280;30041;48.300;16.352;2022-10-16T05:47:59;100138.97;;;24.57;48.78
43312;BME280;30041;48.300;16.352;2022-10-16T05:50:25;100139.78;;;24.58;48.68
43312;BME280;30041;48.300;16.352;2022-10-16T05:52:52;100138.41;;;24.55;48.73
43312;BME280;30041;48.300;16.352;2022-10-16T05:55:17;100150.63;;;24.58;48.63
43312;BME280;30041;48.300;16.352;2022-10-16T05:57:45;100151.47;;;24.58;48.70
43312;BME280;30041;48.300;16.352;2022-10-16T06:00:11;100162.31;;;24.58;48.58
43312;BME280;30041;48.300;16.352;2022-10-16T06:02:37;100168.06;;;24.62;48.44
43312;BME280;30041;48.300;16.352;2022-10-16T06:05:08;100165.28;;;24.57;48.46
43312;BME280;30041;48.300;16.352;2022-10-16T06:07:35;100167.75;;;24.58;48.61
43312;BME280;30041;48.300;16.352;2022-10-16T06:10:01;100175.88;;;24.75;48.47
43312;BME280;30041;48.300;16.352;2022-10-16T06:12:26;100175.38;;;24.78;48.10
43312;BME280;30041;48.300;16.352;2022-10-16T06:14:52;100178.50;;;24.70;48.41
43312;BME280;30041;48.300;16.352;2022-10-16T06:17:18;100182.63;;;24.44;48.97
43312;BME280;30041;48.300;16.352;2022-10-16T06:19:43;100180.16;;;24.42;49.01
43312;BME280;30041;48.300;16.352;2022-10-16T06:22:11;100191.94;;;24.48;48.72
43312;BME280;30041;48.300;16.352;2022-10-16T06:24:37;100194.28;;;24.44;48.71
43312;BME280;30041;48.300;16.352;2022-10-16T06:27:03;100204.19;;;24.51;48.75
43312;BME280;30041;48.300;16.352;2022-10-16T06:29:29;100205.97;;;24.45;48.91
43312;BME280;30041;48.300;16.352;2022-10-16T06:31:54;100212.81;;;24.48;48.70
43312;BME280;30041;48.300;16.352;2022-10-16T06:34:20;100209.72;;;24.44;48.88
43312;BME280;30041;48.300;16.352;2022-10-16T06:36:45;100210.41;;;24.51;48.67
43312;BME280;30041;48.300;16.352;2022-10-16T06:39:11;100211.38;;;24.45;48.98
43312;BME280;30041;48.300;16.352;2022-10-16T06:41:37;100214.91;;;24.45;48.92
43312;BME280;30041;48.300;16.352;2022-10-16T06:44:05;100213.38;;;24.50;48.73
43312;BME280;30041;48.300;16.352;2022-10-16T06:46:31;100211.63;;;24.43;48.96
43312;BME280;30041;48.300;16.352;2022-10-16T06:48:56;100215.13;;;24.44;48.85
43312;BME280;30041;48.300;16.352;2022-10-16T06:51:24;100230.34;;;24.45;48.81
43312;BME280;30041;48.300;16.352;2022-10-16T06:53:54;100237.88;;;24.43;48.92
43312;BME280;30041;48.300;16.352;2022-10-16T06:56:25;100242.22;;;24.44;48.79
43312;BME280;30041;48.300;16.352;2022-10-16T06:58:52;100244.34;;;24.42;48.88
43312;BME280;30041;48.300;16.352;2022-10-16T07:01:20;100244.94;;;24.44;48.66
43312;BME280;30041;48.300;16.352;2022-10-16T07:03:47;100250.75;;;24.48;48.56
43312;BME280;30041;48.300;16.352;2022-10-16T07:06:15;100246.25;;;24.41;49.07
43312;BME280;30041;48.300;16.352;2022-10-16T07:08:43;100250.13;;;24.45;48.72
43312;BME280;30041;48.300;16.352;2022-10-16T07:11:11;100252.75;;;24.40;49.07
43312;BME280;30041;48.300;16.352;2022-10-16T07:13:38;100248.97;;;24.41;49.12
43312;BME280;30041;48.300;16.352;2022-10-16T07:16:09;100256.84;;;24.43;49.05
43312;BME280;30041;48.300;16.352;2022-10-16T07:18:35;100260.38;;;24.43;49.10
43312;BME280;30041;48.300;16.352;2022-10-16T07:21:10;100263.31;;;24.42;48.83
43312;BME280;30041;48.300;16.352;2022-10-16T07:23:36;100268.50;;;24.43;48.77
43312;BME280;30041;48.300;16.352;2022-10-16T07:26:05;100268.75;;;24.42;48.85
43312;BME280;30041;48.300;16.352;2022-10-16T07:28:31;100254.59;;;24.40;48.80
43312;BME280;30041;48.300;16.352;2022-10-16T07:31:01;100264.97;;;24.43;48.80
43312;BME280;30041;48.300;16.352;2022-10-16T07:33:27;100258.97;;;24.41;48.78
43312;BME280;30041;48.300;16.352;2022-10-16T07:35:54;100255.19;;;24.42;48.73
43312;BME280;30041;48.300;16.352;2022-10-16T07:38:20;100253.06;;;24.44;48.64
43312;BME280;30041;48.300;16.352;2022-10-16T07:40:46;100256.84;;;24.43;48.80
43312;BME280;30041;48.300;16.352;2022-10-16T07:43:12;100257.66;;;24.43;49.00
43312;BME280;30041;48.300;16.352;2022-10-16T07:45:48;100262.28;;;24.43;48.97
43312;BME280;30041;48.300;16.352;2022-10-16T07:48:14;100262.28;;;24.43;49.03
43312;BME280;30041;48.300;16.352;2022-10-16T07:50:39;100270.41;;;24.43;48.87
43312;BME280;30041;48.300;16.352;2022-10-16T07:53:05;100266.63;;;24.44;48.80
43312;BME280;30041;48.300;16.352;2022-10-16T07:55:31;100269.00;;;24.40;48.77
43312;BME280;30041;48.300;16.352;2022-10-16T07:57:56;100269.81;;;24.41;48.66
43312;BME280;30041;48.300;16.352;2022-10-16T08:00:22;100270.69;;;24.30;48.93
43312;BME280;30041;48.300;16.352;2022-10-16T08:02:48;100287.28;;;23.81;50.75
43312;BME280;30041;48.300;16.352;2022-10-16T08:05:13;100286.31;;;23.52;51.48
43312;BME280;30041;48.300;16.352;2022-10-16T08:07:39;100289.72;;;23.12;50.14
43312;BME280;30041;48.300;16.352;2022-10-16T08:10:05;100296.19;;;23.11;51.48
43312;BME280;30041;48.300;16.352;2022-10-16T08:12:31;100302.16;;;23.13;51.72
43312;BME280;30041;48.300;16.352;2022-10-16T08:14:56;100307.22;;;23.09;52.24
43312;BME280;30041;48.300;16.352;2022-10-16T08:17:22;100302.94;;;23.02;52.48
43312;BME280;30041;48.300;16.352;2022-10-16T08:19:48;100312.41;;;23.11;52.28
43312;BME280;30041;48.300;16.352;2022-10-16T08:22:14;100313.66;;;23.08;52.26
43312;BME280;30041;48.300;16.352;2022-10-16T08:24:40;100316.47;;;23.02;52.44
43312;BME280;30041;48.300;16.352;2022-10-16T08:27:06;100319.63;;;22.98;52.53
43312;BME280;30041;48.300;16.352;2022-10-16T08:29:32;100319.84;;;22.97;52.61
43312;BME280;30041;48.300;16.352;2022-10-16T08:31:58;100320.25;;;23.00;52.47
43312;BME280;30041;48.300;16.352;2022-10-16T08:34:24;100323.75;;;23.01;52.72
43312;BME280;30041;48.300;16.352;2022-10-16T08:36:53;100322.91;;;22.89;52.73
43312;BME280;30041;48.300;16.352;2022-10-16T08:39:19;100313.81;;;22.83;52.98
43312;BME280;30041;48.300;16.352;2022-10-16T08:42:15;100321.31;;;22.81;53.32
43312;BME280;30041;48.300;16.352;2022-10-16T08:47:47;100317.22;;;22.78;52.99
43312;BME280;30041;48.300;16.352;2022-10-16T08:50:22;100322.13;;;22.82;53.15
43312;BME280;30041;48.300;16.352;2022-10-16T08:52:48;100318.19;;;22.84;53.16
43312;BME280;30041;48.300;16.352;2022-10-16T08:55:45;100318.63;;;22.81;53.22
43312;BME280;30041;48.300;16.352;2022-10-16T08:58:17;100322.63;;;22.78;53.33
43312;BME280;30041;48.300;16.352;2022-10-16T09:00:47;100329.22;;;22.83;53.22
43312;BME280;30041;48.300;16.352;2022-10-16T09:03:23;100338.44;;;22.75;53.20
43312;BME280;30041;48.300;16.352;2022-10-16T09:11:17;100334.09;;;22.74;53.42
43312;BME280;30041;48.300;16.352;2022-10-16T09:13:52;100346.00;;;22.73;53.58
43312;BME280;30041;48.300;16.352;2022-10-16T09:19:19;100340.81;;;22.71;53.41
43312;BME280;30041;48.300;16.352;2022-10-16T09:21:46;100340.59;;;22.73;53.29
43312;BME280;30041;48.300;16.352;2022-10-16T09:24:15;100347.03;;;22.72;53.41
43312;BME280;30041;48.300;16.352;2022-10-16T09:26:44;100351.81;;;22.70;53.43
43312;BME280;30041;48.300;16.352;2022-10-16T09:29:13;100357.44;;;22.68;53.54
43312;BME280;30041;48.300;16.352;2022-10-16T09:31:39;100361.34;;;22.72;53.71
43312;BME280;30041;48.300;16.352;2022-10-16T09:34:05;100366.53;;;22.74;53.21
43312;BME280;30041;48.300;16.352;2022-10-16T09:36:44;100366.50;;;22.62;53.53
43312;BME280;30041;48.300;16.352;2022-10-16T09:39:11;100373.09;;;22.66;53.67
43312;BME280;30041;48.300;16.352;2022-10-16T09:41:39;100370.38;;;22.66;53.66
43312;BME280;30041;48.300;16.352;2022-10-16T09:44:27;100371.91;;;22.62;53.76
43312;BME280;30041;48.300;16.352;2022-10-16T09:47:16;100375.03;;;22.59;53.43
43312;BME280;30041;48.300;16.352;2022-10-16T09:50:00;100372.41;;;22.52;54.06
43312;BME280;30041;48.300;16.352;2022-10-16T09:52:26;100372.09;;;22.61;53.96
43312;BME280;30041;48.300;16.352;2022-10-16T09:54:53;100376.91;;;22.58;53.64
43312;BME280;30041;48.300;16.352;2022-10-16T09:57:19;100374.34;;;22.64;53.98
43312;BME280;30041;48.300;16.352;2022-10-16T09:59:47;100381.84;;;22.62;54.11
43312;BME280;30041;48.300;16.352;2022-10-16T10:02:14;100381.50;;;22.58;54.11
43312;BME280;30041;48.300;16.352;2022-10-16T10:04:50;100394.53;;;22.61;53.75
43312;BME280;30041;48.300;16.352;2022-10-16T10:07:19;100387.34;;;22.55;54.24
43312;BME280;30041;48.300;16.352;2022-10-16T10:09:46;100377.13;;;22.57;54.19
43312;BME280;30041;48.300;16.352;2022-10-16T10:12:21;100374.69;;;22.55;54.08
43312;BME280;30041;48.300;16.352;2022-10-16T10:14:49;100373.69;;;22.50;54.37
43312;BME280;30041;48.300;16.352;2022-10-16T10:17:27;100374.06;;;22.53;54.46
43312;BME280;30041;48.300;16.352;2022-10-16T10:19:56;100371.97;;;22.55;54.39
43312;BME280;30041;48.300;16.352;2022-10-16T10:22:25;100367.59;;;22.54;54.46
43312;BME280;30041;48.300;16.352;2022-10-16T10:25:04;100366.78;;;22.54;54.58
43312;BME280;30041;48.300;16.352;2022-10-16T10:30:48;100375.50;;;22.56;54.59
43312;BME280;30041;48.300;16.352;2022-10-16T10:33:35;100373.41;;;22.58;53.98
43312;BME280;30041;48.300;16.352;2022-10-16T10:36:28;100357.25;;;22.51;54.16
43312;BME280;30041;48.300;16.352;2022-10-16T10:39:17;100348.94;;;22.53;54.42
43312;BME280;30041;48.300;16.352;2022-10-16T10:50:41;100360.56;;;22.53;54.33
43312;BME280;30041;48.300;16.352;2022-10-16T10:56:17;100356.28;;;22.46;54.42
43312;BME280;30041;48.300;16.352;2022-10-16T11:01:45;100352.91;;;22.50;54.58
43312;BME280;30041;48.300;16.352;2022-10-16T11:07:28;100347.50;;;22.50;54.27
43312;BME280;30041;48.300;16.352;2022-10-16T11:10:27;100347.25;;;22.70;52.98
43312;BME280;30041;48.300;16.352;2022-10-16T11:12:58;100351.19;;;22.86;52.60
43312;BME280;30041;48.300;16.352;2022-10-16T11:15:37;100343.22;;;23.21;51.63
43312;BME280;30041;48.300;16.352;2022-10-16T11:18:08;100341.59;;;23.44;51.69
43312;BME280;30041;48.300;16.352;2022-10-16T11:20:49;100333.25;;;23.57;51.69
43312;BME280;30041;48.300;16.352;2022-10-16T11:23:22;100332.44;;;23.69;51.26
43312;BME280;30041;48.300;16.352;2022-10-16T11:25:50;100331.41;;;23.81;51.08
43312;BME280;30041;48.300;16.352;2022-10-16T11:28:36;100334.34;;;23.80;51.17
43312;BME280;30041;48.300;16.352;2022-10-16T11:34:42;100334.22;;;23.87;51.52
43312;BME280;30041;48.300;16.352;2022-10-16T11:37:19;100329.28;;;23.95;51.65
43312;BME280;30041;48.300;16.352;2022-10-16T11:39:46;100330.41;;;24.11;51.28
43312;BME280;30041;48.300;16.352;2022-10-16T11:42:35;100327.03;;;24.16;51.27
43312;BME280;30041;48.300;16.352;2022-10-16T11:45:26;100329.09;;;24.26;51.30
43312;BME280;30041;48.300;16.352;2022-10-16T11:48:35;100322.75;;;24.32;51.43
43312;BME280;30041;48.300;16.352;2022-10-16T11:50:56;100326.63;;;24.36;51.38
43312;BME280;30041;48.300;16.352;2022-10-16T11:53:46;100314.47;;;24.38;51.45
43312;BME280;30041;48.300;16.352;2022-10-16T11:56:19;100325.63;;;24.42;51.37
43312;BME280;30041;48.300;16.352;2022-10-16T11:59:05;100325.63;;;24.42;51.36
43312;BME280;30041;48.300;16.352;2022-10-16T12:04:24;100328.69;;;24.45;51.46
43312;BME280;30041;48.300;16.352;2022-10-16T12:07:09;100331.31;;;24.52;51.54
43312;BME280;30041;48.300;16.352;2022-10-16T12:09:39;100323.16;;;24.52;51.54
43312;BME280;30041;48.300;16.352;2022-10-16T12:12:05;100318.41;;;24.59;51.55
43312;BME280;30041;48.300;16.352;2022-10-16T12:15:15;100314.84;;;24.30;50.94
43312;BME280;30041;48.300;16.352;2022-10-16T12:17:43;100311.97;;;24.49;50.93
43312;BME280;30041;48.300;16.352;2022-10-16T12:22:40;100308.50;;;24.65;51.45
43312;BME280;30041;48.300;16.352;2022-10-16T12:25:21;100302.66;;;24.44;49.87
43312;BME280;30041;48.300;16.352;2022-10-16T12:27:55;100306.22;;;24.05;51.35
43312;BME280;30041;48.300;16.352;2022-10-16T12:30:29;100302.78;;;24.38;51.09
43312;BME280;30041;48.300;16.352;2022-10-16T12:33:06;100308.91;;;24.57;50.75
43312;BME280;30041;48.300;16.352;2022-10-16T12:35:45;100317.22;;;24.67;51.14
43312;BME280;30041;48.300;16.352;2022-10-16T12:38:49;100315.34;;;24.68;51.31
43312;BME280;30041;48.300;16.352;2022-10-16T12:41:09;100316.50;;;24.72;51.59
43312;BME280;30041;48.300;16.352;2022-10-16T12:43:41;100313.88;;;24.77;51.28
43312;BME280;30041;48.300;16.352;2022-10-16T12:48:38;100313.97;;;24.82;51.50
43312;BME280;30041;48.300;16.352;2022-10-16T12:54:18;100319.97;;;24.84;51.38
43312;BME280;30041;48.300;16.352;2022-10-16T12:59:53;100313.34;;;24.92;51.23
43312;BME280;30041;48.300;16.352;2022-10-16T13:03:27;100313.06;;;24.93;51.23
43312;BME280;30041;48.300;16.352;2022-10-16T13:08:09;100313.19;;;24.98;51.38
43312;BME280;30041;48.300;16.352;2022-10-16T13:16:28;100324.28;;;24.68;49.81
43312;BME280;30041;48.300;16.352;2022-10-16T13:22:08;100323.38;;;23.63;51.61
43312;BME280;30041;48.300;16.352;2022-10-16T13:30:29;100328.44;;;23.36;52.45
43312;BME280;30041;48.300;16.352;2022-10-16T13:33:10;100331.47;;;23.39;52.46
43312;BME280;30041;48.300;16.352;2022-10-16T13:35:48;100330.78;;;23.44;52.15
43312;BME280;30041;48.300;16.352;2022-10-16T13:38:17;100329.34;;;23.41;52.25
43312;BME280;30041;48.300;16.352;2022-10-16T13:40:55;100326.75;;;23.35;52.65
43312;BME280;30041;48.300;16.352;2022-10-16T13:43:39;100324.31;;;23.33;52.31
43312;BME280;30041;48.300;16.352;2022-10-16T13:46:25;100324.31;;;23.33;52.31
43312;BME280;30041;48.300;16.352;2022-10-16T13:49:11;100325.25;;;23.27;52.79
43312;BME280;30041;48.300;16.352;2022-10-16T13:51:37;100327.47;;;23.30;52.46
43312;BME280;30041;48.300;16.352;2022-10-16T13:54:03;100326.53;;;23.25;52.90
43312;BME280;30041;48.300;16.352;2022-10-16T13:56:30;100326.53;;;23.25;52.98
43312;BME280;30041;48.300;16.352;2022-10-16T13:59:05;100331.56;;;23.21;52.79
43312;BME280;30041;48.300;16.352;2022-10-16T14:01:41;100326.16;;;23.21;52.95
43312;BME280;30041;48.300;16.352;2022-10-16T14:04:11;100326.97;;;23.21;52.79
43312;BME280;30041;48.300;16.352;2022-10-16T14:06:44;100327.34;;;23.25;52.49
43312;BME280;30041;48.300;16.352;2022-10-16T14:09:21;100325.78;;;23.17;52.79